createdAt,value
2023-02-09T00:01:31.415Z,-5.74
2023-02-09T00:03:59.115Z,-5.67
2023-02-09T00:06:26.353Z,-5.65
2023-02-09T00:08:53.281Z,-5.68
2023-02-09T00:11:45.014Z,-5.77
2023-02-09T00:14:12.539Z,-5.87
2023-02-09T00:16:39.397Z,-5.99
2023-02-09T00:19:06.448Z,-6.09
2023-02-09T00:21:33.525Z,-6.01
2023-02-09T00:24:00.269Z,-6.20
2023-02-09T00:26:26.804Z,-6.21
2023-02-09T00:28:53.654Z,-6.13
2023-02-09T00:31:20.296Z,-6.24
2023-02-09T00:33:47.090Z,-6.33
2023-02-09T00:36:14.676Z,-6.28
2023-02-09T00:38:42.518Z,-6.27
2023-02-09T00:41:09.455Z,-6.48
2023-02-09T00:43:37.650Z,-6.52
2023-02-09T00:46:04.341Z,-6.55
2023-02-09T00:48:31.266Z,-6.62
2023-02-09T00:50:58.021Z,-6.50
2023-02-09T00:53:25.041Z,-6.44
2023-02-09T00:55:52.082Z,-6.48
2023-02-09T00:58:19.802Z,-6.61
2023-02-09T01:00:46.537Z,-6.80
2023-02-09T01:03:13.258Z,-6.87
2023-02-09T01:05:41.370Z,-6.94
2023-02-09T01:08:07.892Z,-7.00
2023-02-09T01:10:34.545Z,-7.19
2023-02-09T01:13:01.014Z,-7.10
2023-02-09T01:15:29.274Z,-7.05
2023-02-09T01:17:55.804Z,-7.28
2023-02-09T01:20:22.413Z,-7.21
2023-02-09T01:22:48.835Z,-7.13
2023-02-09T01:25:15.330Z,-7.31
2023-02-09T01:27:42.317Z,-7.19
2023-02-09T01:30:09.691Z,-7.11
2023-02-09T01:32:37.168Z,-7.23
2023-02-09T01:35:04.434Z,-7.34
2023-02-09T01:37:33.713Z,-7.26
2023-02-09T01:40:00.189Z,-7.31
2023-02-09T01:42:27.012Z,-7.35
2023-02-09T01:45:08.655Z,-7.48
2023-02-09T01:47:43.516Z,-7.48
2023-02-09T01:50:10.126Z,-7.34
2023-02-09T01:52:36.592Z,-7.44
2023-02-09T01:55:07.319Z,-7.41
2023-02-09T01:57:43.997Z,-7.49
2023-02-09T02:00:16.534Z,-7.57
2023-02-09T02:02:52.680Z,-7.74
2023-02-09T02:05:20.697Z,-7.42
2023-02-09T02:07:56.458Z,-7.51
2023-02-09T02:10:24.268Z,-7.58
2023-02-09T02:12:53.645Z,-7.88
2023-02-09T02:15:22.000Z,-7.75
2023-02-09T02:18:07.973Z,-7.77
2023-02-09T02:21:12.271Z,-7.68
2023-02-09T02:23:44.834Z,-7.67
2023-02-09T02:26:35.304Z,-7.73
2023-02-09T02:29:16.006Z,-7.70
2023-02-09T02:31:54.139Z,-7.82
2023-02-09T02:35:03.205Z,-7.91
2023-02-09T02:37:56.004Z,-7.89
2023-02-09T02:40:48.216Z,-7.96
2023-02-09T02:43:33.503Z,-7.96
2023-02-09T02:46:10.959Z,-8.01
2023-02-09T02:48:48.066Z,-7.85
2023-02-09T02:51:27.720Z,-8.03
2023-02-09T02:53:57.441Z,-7.97
2023-02-09T02:56:35.980Z,-8.16
2023-02-09T02:59:06.460Z,-8.09
2023-02-09T03:01:40.293Z,-8.07
2023-02-09T03:04:08.505Z,-8.17
2023-02-09T03:06:37.821Z,-8.08
2023-02-09T03:09:05.698Z,-7.95
2023-02-09T03:11:39.616Z,-7.89
2023-02-09T03:14:09.023Z,-7.90
2023-02-09T03:17:04.908Z,-8.00
2023-02-09T03:19:57.924Z,-8.00
2023-02-09T03:22:35.452Z,-8.10
2023-02-09T03:25:05.914Z,-8.11
2023-02-09T03:27:34.988Z,-8.08
2023-02-09T03:30:04.307Z,-8.04
2023-02-09T03:32:32.091Z,-8.27
2023-02-09T03:34:59.115Z,-8.36
2023-02-09T03:37:25.968Z,-8.35
2023-02-09T03:39:52.569Z,-8.22
2023-02-09T03:42:19.175Z,-8.29
2023-02-09T03:44:45.618Z,-8.32
2023-02-09T03:47:12.312Z,-8.29
2023-02-09T03:49:40.999Z,-8.27
2023-02-09T03:52:12.696Z,-8.42
2023-02-09T03:54:39.679Z,-8.17
2023-02-09T03:57:06.819Z,-7.97
2023-02-09T03:59:35.471Z,-8.12
2023-02-09T04:02:03.481Z,-8.20
2023-02-09T04:04:30.598Z,-8.26
2023-02-09T04:06:57.446Z,-8.40
2023-02-09T04:09:25.026Z,-8.36
2023-02-09T04:11:51.509Z,-8.33
2023-02-09T04:14:18.412Z,-8.33
2023-02-09T04:16:45.211Z,-8.38
2023-02-09T04:19:12.314Z,-8.43
2023-02-09T04:21:39.343Z,-8.31
2023-02-09T04:24:06.810Z,-8.32
2023-02-09T04:26:33.964Z,-8.32
2023-02-09T04:29:00.618Z,-8.41
2023-02-09T04:31:27.260Z,-8.30
2023-02-09T04:33:53.775Z,-8.31
2023-02-09T04:36:23.178Z,-8.34
2023-02-09T04:38:50.149Z,-8.35
2023-02-09T04:41:16.599Z,-8.33
2023-02-09T04:43:43.113Z,-8.37
2023-02-09T04:46:17.546Z,-8.36
2023-02-09T04:48:45.368Z,-8.10
2023-02-09T04:51:11.898Z,-8.06
2023-02-09T04:53:38.317Z,-8.24
2023-02-09T04:56:05.270Z,-8.28
2023-02-09T04:58:50.340Z,-8.22
2023-02-09T05:01:26.165Z,-8.21
2023-02-09T05:03:53.425Z,-8.18
2023-02-09T05:06:19.944Z,-8.33
2023-02-09T05:08:46.920Z,-8.24
2023-02-09T05:11:13.348Z,-8.38
2023-02-09T05:13:40.068Z,-8.37
2023-02-09T05:16:08.234Z,-8.39
2023-02-09T05:18:35.332Z,-8.39
2023-02-09T05:21:01.922Z,-8.26
2023-02-09T05:23:28.520Z,-8.42
2023-02-09T05:25:56.458Z,-8.47
2023-02-09T05:28:24.821Z,-8.30
2023-02-09T05:30:53.782Z,-8.38
2023-02-09T05:33:25.159Z,-8.40
2023-02-09T05:35:53.260Z,-8.35
2023-02-09T05:38:19.985Z,-8.41
2023-02-09T05:40:46.850Z,-8.32
2023-02-09T05:43:14.703Z,-8.18
2023-02-09T05:45:41.279Z,-8.01
2023-02-09T05:48:07.863Z,-7.79
2023-02-09T05:50:35.736Z,-7.59
2023-02-09T05:53:07.084Z,-7.57
2023-02-09T05:55:33.500Z,-7.69
2023-02-09T05:58:00.027Z,-7.54
2023-02-09T06:00:29.588Z,-7.52
2023-02-09T06:02:56.303Z,-7.68
2023-02-09T06:05:22.857Z,-7.78
2023-02-09T06:07:49.566Z,-7.41
2023-02-09T06:10:19.122Z,-7.34
2023-02-09T06:12:45.559Z,-7.37
2023-02-09T06:15:12.401Z,-7.44
2023-02-09T06:17:38.846Z,-7.42
2023-02-09T06:20:05.854Z,-7.32
2023-02-09T06:22:32.290Z,-7.16
2023-02-09T06:24:59.609Z,-7.37
2023-02-09T06:27:26.009Z,-7.83
2023-02-09T06:29:52.582Z,-7.76
2023-02-09T06:32:19.071Z,-7.83
2023-02-09T06:34:45.689Z,-7.83
2023-02-09T06:37:12.112Z,-7.87
2023-02-09T06:39:38.531Z,-7.96
2023-02-09T06:42:05.128Z,-8.05
2023-02-09T06:44:31.537Z,-7.97
2023-02-09T06:46:58.056Z,-8.07
2023-02-09T06:49:26.381Z,-8.10
2023-02-09T06:51:53.040Z,-8.04
2023-02-09T06:54:20.089Z,-8.14
2023-02-09T06:56:46.742Z,-8.21
2023-02-09T06:59:13.809Z,-7.89
2023-02-09T07:01:40.472Z,-8.11
2023-02-09T07:04:06.980Z,-7.98
2023-02-09T07:06:33.437Z,-8.13
2023-02-09T07:08:59.924Z,-8.00
2023-02-09T07:11:26.398Z,-8.00
2023-02-09T07:13:52.841Z,-7.83
2023-02-09T07:16:19.339Z,-8.01
2023-02-09T07:18:45.937Z,-7.75
2023-02-09T07:21:19.832Z,-7.75
2023-02-09T07:23:47.752Z,-7.58
2023-02-09T07:26:17.671Z,-7.65
2023-02-09T07:28:44.655Z,-7.66
2023-02-09T07:31:13.849Z,-7.53
2023-02-09T07:33:40.497Z,-7.68
2023-02-09T07:36:09.600Z,-7.50
2023-02-09T07:38:37.370Z,-7.38
2023-02-09T07:41:06.354Z,-7.41
2023-02-09T07:43:33.400Z,-7.30
2023-02-09T07:46:01.572Z,-7.10
2023-02-09T07:48:28.611Z,-7.07
2023-02-09T07:50:55.194Z,-7.10
2023-02-09T07:53:21.774Z,-6.95
2023-02-09T07:55:48.519Z,-6.91
2023-02-09T07:58:18.125Z,-6.76
2023-02-09T08:00:46.163Z,-6.82
2023-02-09T08:03:14.697Z,-6.69
2023-02-09T08:06:00.389Z,-6.27
2023-02-09T08:08:27.128Z,-6.12
2023-02-09T08:10:56.344Z,-5.92
2023-02-09T08:13:23.863Z,-5.86
2023-02-09T08:15:55.521Z,-6.13
2023-02-09T08:18:32.368Z,-5.76
2023-02-09T08:20:59.168Z,-5.70
2023-02-09T08:23:30.909Z,-5.68
2023-02-09T08:26:00.002Z,-5.58
2023-02-09T08:28:41.675Z,-5.53
2023-02-09T08:31:14.721Z,-5.44
2023-02-09T08:33:42.458Z,-5.33
2023-02-09T08:36:10.413Z,-5.27
2023-02-09T08:38:37.166Z,-5.14
2023-02-09T08:41:05.792Z,-5.19
2023-02-09T08:43:33.082Z,-5.00
2023-02-09T08:46:08.924Z,-4.91
2023-02-09T08:48:37.082Z,-4.72
2023-02-09T08:51:04.597Z,-4.62
2023-02-09T08:53:31.083Z,-4.50
2023-02-09T08:55:57.632Z,-4.34
2023-02-09T08:58:25.647Z,-4.34
2023-02-09T09:00:59.859Z,-4.09
2023-02-09T09:03:29.906Z,-4.04
2023-02-09T09:06:05.117Z,-3.95
2023-02-09T09:08:32.730Z,-3.51
2023-02-09T09:10:59.552Z,-3.28
2023-02-09T09:13:26.633Z,-3.30
2023-02-09T09:15:55.247Z,-3.01
2023-02-09T09:18:22.923Z,-2.92
2023-02-09T09:20:49.412Z,-2.82
2023-02-09T09:23:16.358Z,-2.78
2023-02-09T09:25:43.035Z,-2.57
2023-02-09T09:28:10.299Z,-2.37
2023-02-09T09:30:37.158Z,-2.39
2023-02-09T09:33:04.245Z,-2.39
2023-02-09T09:35:31.206Z,-1.85
2023-02-09T09:37:58.472Z,-1.99
2023-02-09T09:40:27.914Z,-1.76
2023-02-09T09:43:00.589Z,-1.82
2023-02-09T09:45:29.652Z,-1.87
2023-02-09T09:47:56.885Z,-1.73
2023-02-09T09:50:27.426Z,-1.60
2023-02-09T09:53:04.945Z,-1.41
2023-02-09T09:55:32.484Z,-0.93
2023-02-09T09:58:02.942Z,-0.89
2023-02-09T10:00:39.730Z,-0.97
2023-02-09T10:03:17.850Z,-0.79
2023-02-09T10:05:47.303Z,-0.78
2023-02-09T10:08:29.507Z,-0.60
2023-02-09T10:11:17.146Z,-0.37
2023-02-09T10:13:49.541Z,-0.27
2023-02-09T10:16:18.618Z,-0.25
2023-02-09T10:18:49.464Z,-0.10
2023-02-09T10:21:17.195Z,-0.17
2023-02-09T10:23:50.148Z,0.09
2023-02-09T10:26:23.190Z,0.19
2023-02-09T10:29:12.716Z,0.22
2023-02-09T10:31:43.450Z,0.52
2023-02-09T10:34:16.475Z,1.15
2023-02-09T10:36:45.883Z,1.20
2023-02-09T10:39:12.249Z,1.25
2023-02-09T10:41:41.964Z,1.23
2023-02-09T10:44:23.681Z,1.40
2023-02-09T10:46:50.608Z,1.42
2023-02-09T10:49:35.191Z,1.57
2023-02-09T10:52:20.559Z,1.89
2023-02-09T10:54:56.831Z,1.85
2023-02-09T10:57:28.748Z,1.78
2023-02-09T10:59:58.210Z,1.99
2023-02-09T11:02:29.146Z,2.01
2023-02-09T11:04:55.594Z,2.17
2023-02-09T11:07:25.123Z,2.13
2023-02-09T11:09:52.501Z,2.34
2023-02-09T11:12:22.632Z,2.19
2023-02-09T11:14:49.348Z,2.31
2023-02-09T11:17:36.326Z,2.75
2023-02-09T11:20:13.591Z,2.55
2023-02-09T11:22:45.931Z,2.46
2023-02-09T11:25:33.030Z,2.28
2023-02-09T11:28:31.486Z,2.53
2023-02-09T11:31:25.833Z,2.59
2023-02-09T11:34:04.600Z,2.44
2023-02-09T11:36:57.360Z,2.60
2023-02-09T11:39:36.972Z,2.86
2023-02-09T11:42:34.658Z,2.89
2023-02-09T11:45:22.164Z,2.81
2023-02-09T11:48:02.477Z,3.09
2023-02-09T11:50:56.355Z,2.98
2023-02-09T11:53:45.629Z,3.30
2023-02-09T11:56:15.977Z,3.18
2023-02-09T11:58:56.963Z,2.93
2023-02-09T12:02:00.267Z,3.22
2023-02-09T12:04:59.082Z,3.17
2023-02-09T12:08:01.971Z,2.95
2023-02-09T12:10:37.259Z,3.01
2023-02-09T12:13:23.929Z,2.86
2023-02-09T12:15:54.355Z,2.84
2023-02-09T12:18:27.506Z,2.95
2023-02-09T12:20:56.182Z,3.05
2023-02-09T12:23:36.715Z,3.01
2023-02-09T12:26:12.242Z,2.81
2023-02-09T12:28:46.321Z,2.84
2023-02-09T12:31:19.408Z,2.81
2023-02-09T12:33:45.988Z,2.93
2023-02-09T12:36:21.284Z,2.73
2023-02-09T12:39:07.117Z,2.80
2023-02-09T12:41:33.549Z,2.96
2023-02-09T12:44:05.886Z,2.93
2023-02-09T12:46:32.338Z,2.74
2023-02-09T12:49:01.857Z,3.04
2023-02-09T12:51:52.933Z,2.97
2023-02-09T12:54:51.815Z,2.74
2023-02-09T12:57:18.844Z,2.63
2023-02-09T12:59:51.244Z,2.66
2023-02-09T13:02:25.293Z,2.73
2023-02-09T13:05:09.724Z,2.57
2023-02-09T13:07:44.864Z,2.49
2023-02-09T13:10:42.438Z,2.48
2023-02-09T13:13:12.081Z,2.71
2023-02-09T13:15:47.887Z,2.58
2023-02-09T13:18:33.725Z,2.27
2023-02-09T13:21:18.869Z,2.35
2023-02-09T13:24:04.246Z,2.70
2023-02-09T13:26:34.122Z,2.56
2023-02-09T13:29:21.462Z,2.67
2023-02-09T13:31:54.658Z,2.44
2023-02-09T13:34:40.034Z,2.36
2023-02-09T13:37:17.778Z,2.42
2023-02-09T13:39:44.461Z,2.31
2023-02-09T13:42:23.635Z,2.24
2023-02-09T13:44:52.585Z,2.18
2023-02-09T13:47:19.810Z,2.15
2023-02-09T13:50:01.079Z,2.42
2023-02-09T13:52:38.842Z,2.52
2023-02-09T13:55:21.346Z,2.61
2023-02-09T13:58:07.201Z,2.44
2023-02-09T14:00:43.744Z,2.42
2023-02-09T14:03:21.003Z,2.42
2023-02-09T14:06:17.978Z,2.47
2023-02-09T14:08:46.279Z,2.34
2023-02-09T14:11:18.765Z,2.57
2023-02-09T14:13:52.200Z,2.44
2023-02-09T14:16:20.955Z,2.32
2023-02-09T14:18:54.808Z,2.43
2023-02-09T14:21:31.598Z,2.30
2023-02-09T14:24:00.945Z,2.43
2023-02-09T14:26:30.196Z,2.29
2023-02-09T14:29:23.807Z,2.30
2023-02-09T14:31:53.389Z,2.20
2023-02-09T14:34:28.118Z,2.17
2023-02-09T14:37:00.235Z,1.95
2023-02-09T14:39:30.850Z,2.04
2023-02-09T14:42:09.032Z,2.09
2023-02-09T14:44:45.581Z,1.97
2023-02-09T14:47:50.972Z,1.97
2023-02-09T14:50:20.594Z,1.92
2023-02-09T14:52:54.325Z,1.99
2023-02-09T14:55:26.369Z,1.90
2023-02-09T14:57:53.125Z,1.82
2023-02-09T15:00:30.125Z,1.92
2023-02-09T15:02:58.177Z,1.90
2023-02-09T15:05:26.622Z,1.87
2023-02-09T15:07:59.795Z,1.99
2023-02-09T15:10:31.991Z,1.92
2023-02-09T15:12:59.527Z,1.89
2023-02-09T15:15:26.583Z,1.94
2023-02-09T15:17:55.172Z,1.86
2023-02-09T15:20:26.058Z,1.83
2023-02-09T15:22:53.976Z,1.77
2023-02-09T15:25:21.156Z,1.85
2023-02-09T15:27:52.908Z,1.66
2023-02-09T15:30:26.435Z,1.56
2023-02-09T15:32:53.428Z,1.49
2023-02-09T15:35:22.686Z,1.58
2023-02-09T15:37:53.230Z,1.49
2023-02-09T15:40:49.374Z,1.51
2023-02-09T15:43:40.310Z,1.45
2023-02-09T15:46:26.835Z,1.45
2023-02-09T15:48:53.404Z,1.36
2023-02-09T15:51:21.969Z,1.32
2023-02-09T15:53:48.866Z,1.24
2023-02-09T15:56:16.008Z,1.12
2023-02-09T15:58:45.788Z,1.14
2023-02-09T16:01:14.526Z,0.97
2023-02-09T16:03:41.068Z,0.91
2023-02-09T16:06:14.827Z,0.87
2023-02-09T16:08:43.140Z,0.91
2023-02-09T16:11:32.927Z,0.87
2023-02-09T16:13:59.956Z,0.71
2023-02-09T16:16:27.803Z,0.76
2023-02-09T16:18:55.016Z,0.76
2023-02-09T16:21:31.621Z,0.68
2023-02-09T16:24:03.715Z,0.57
2023-02-09T16:26:32.307Z,0.48
2023-02-09T16:28:59.046Z,0.40
2023-02-09T16:31:25.605Z,0.15
2023-02-09T16:33:52.297Z,0.10
2023-02-09T16:36:21.512Z,0.09
2023-02-09T16:38:48.260Z,-0.09
2023-02-09T16:41:37.479Z,-0.10
2023-02-09T16:44:18.966Z,-0.23
2023-02-09T16:46:48.091Z,-0.40
2023-02-09T16:49:29.775Z,-0.51
2023-02-09T16:52:00.526Z,-0.63
2023-02-09T16:54:29.286Z,-0.77
2023-02-09T16:56:56.557Z,-0.75
2023-02-09T16:59:23.023Z,-0.89
2023-02-09T17:01:49.576Z,-0.92
2023-02-09T17:04:16.043Z,-0.93
2023-02-09T17:06:42.496Z,-1.13
2023-02-09T17:09:15.220Z,-1.03
2023-02-09T17:11:42.984Z,-1.11
2023-02-09T17:14:09.643Z,-1.16
2023-02-09T17:16:39.464Z,-1.16
2023-02-09T17:19:15.078Z,-1.25
2023-02-09T17:21:42.238Z,-1.37
2023-02-09T17:24:16.542Z,-1.37
2023-02-09T17:26:43.869Z,-1.54
2023-02-09T17:29:11.392Z,-1.53
2023-02-09T17:31:52.452Z,-1.59
2023-02-09T17:34:20.675Z,-1.52
2023-02-09T17:36:47.358Z,-1.57
2023-02-09T17:39:14.004Z,-1.52
2023-02-09T17:41:46.350Z,-1.51
2023-02-09T17:44:28.980Z,-1.56
2023-02-09T17:47:03.202Z,-1.24
2023-02-09T17:49:29.708Z,-1.30
2023-02-09T17:51:56.178Z,-1.20
2023-02-09T17:54:22.592Z,-1.23
2023-02-09T17:56:49.114Z,-1.20
2023-02-09T17:59:19.461Z,-1.22
2023-02-09T18:01:49.451Z,-1.41
2023-02-09T18:04:23.236Z,-1.34
2023-02-09T18:06:49.851Z,-1.41
2023-02-09T18:09:16.646Z,-1.42
2023-02-09T18:11:52.249Z,-1.52
2023-02-09T18:14:20.620Z,-1.53
2023-02-09T18:16:47.995Z,-1.83
2023-02-09T18:19:16.020Z,-1.73
2023-02-09T18:21:55.134Z,-1.87
2023-02-09T18:24:23.012Z,-1.78
2023-02-09T18:26:52.381Z,-1.95
2023-02-09T18:29:22.732Z,-2.02
2023-02-09T18:31:50.433Z,-2.14
2023-02-09T18:34:16.978Z,-2.35
2023-02-09T18:36:43.503Z,-2.21
2023-02-09T18:39:10.007Z,-2.11
2023-02-09T18:41:36.424Z,-2.32
2023-02-09T18:44:02.886Z,-2.41
2023-02-09T18:46:29.356Z,-2.24
2023-02-09T18:48:56.151Z,-2.35
2023-02-09T18:51:22.734Z,-2.20
2023-02-09T18:53:50.179Z,-2.28
2023-02-09T18:56:20.834Z,-2.33
2023-02-09T18:58:49.762Z,-2.34
2023-02-09T19:01:18.690Z,-2.52
2023-02-09T19:03:45.161Z,-2.67
2023-02-09T19:06:11.863Z,-2.34
2023-02-09T19:08:39.573Z,-2.34
2023-02-09T19:11:06.910Z,-2.36
2023-02-09T19:13:33.988Z,-2.49
2023-02-09T19:16:01.103Z,-2.45
2023-02-09T19:18:27.872Z,-2.66
2023-02-09T19:20:57.778Z,-2.67
2023-02-09T19:23:25.080Z,-2.50
2023-02-09T19:26:01.797Z,-2.52
2023-02-09T19:28:47.454Z,-2.92
2023-02-09T19:31:23.380Z,-3.35
2023-02-09T19:33:54.649Z,-2.91
2023-02-09T19:36:22.724Z,-2.83
2023-02-09T19:38:49.169Z,-2.78
2023-02-09T19:41:15.653Z,-2.75
2023-02-09T19:43:42.194Z,-2.77
2023-02-09T19:46:13.185Z,-2.64
2023-02-09T19:48:40.418Z,-2.71
2023-02-09T19:51:07.735Z,-2.66
2023-02-09T19:53:34.442Z,-2.76
2023-02-09T19:56:00.915Z,-2.90
2023-02-09T19:58:27.368Z,-2.82
2023-02-09T20:00:55.414Z,-2.91
2023-02-09T20:03:22.885Z,-3.00
2023-02-09T20:05:50.800Z,-2.78
2023-02-09T20:08:19.591Z,-2.72
2023-02-09T20:10:46.542Z,-2.90
2023-02-09T20:13:13.934Z,-2.89
2023-02-09T20:15:42.187Z,-2.91
2023-02-09T20:18:09.058Z,-2.84
2023-02-09T20:20:35.884Z,-2.73
2023-02-09T20:23:02.295Z,-3.02
2023-02-09T20:25:28.957Z,-2.88
2023-02-09T20:27:55.708Z,-3.03
2023-02-09T20:30:22.354Z,-3.20
2023-02-09T20:32:49.166Z,-2.80
2023-02-09T20:35:15.675Z,-2.69
2023-02-09T20:37:42.399Z,-2.74
2023-02-09T20:40:11.341Z,-3.06
2023-02-09T20:42:57.245Z,-2.67
2023-02-09T20:45:42.973Z,-2.71
2023-02-09T20:48:12.221Z,-2.89
2023-02-09T20:50:39.750Z,-2.92
2023-02-09T20:53:06.657Z,-2.92
2023-02-09T20:55:35.188Z,-2.80
2023-02-09T20:58:02.255Z,-3.01
2023-02-09T21:00:29.322Z,-2.90
2023-02-09T21:02:56.186Z,-3.02
2023-02-09T21:05:23.227Z,-2.92
2023-02-09T21:07:52.253Z,-3.17
2023-02-09T21:10:19.344Z,-3.38
2023-02-09T21:12:47.211Z,-3.21
2023-02-09T21:15:14.512Z,-3.36
2023-02-09T21:17:47.505Z,-3.37
2023-02-09T21:20:16.553Z,-3.26
2023-02-09T21:22:43.774Z,-3.47
2023-02-09T21:25:11.904Z,-3.45
2023-02-09T21:27:41.125Z,-3.47
2023-02-09T21:30:10.555Z,-3.56
2023-02-09T21:32:38.899Z,-3.36
2023-02-09T21:35:10.447Z,-3.48
2023-02-09T21:37:39.182Z,-3.33
2023-02-09T21:40:07.161Z,-3.38
2023-02-09T21:42:35.692Z,-3.65
2023-02-09T21:45:03.434Z,-3.44
2023-02-09T21:47:36.028Z,-3.56
2023-02-09T21:50:06.669Z,-3.76
2023-02-09T21:52:37.020Z,-3.56
2023-02-09T21:55:04.669Z,-3.78
2023-02-09T21:57:31.091Z,-3.92
2023-02-09T21:59:58.951Z,-3.63
2023-02-09T22:02:27.318Z,-3.84
2023-02-09T22:04:56.352Z,-3.80
2023-02-09T22:07:22.972Z,-3.75
2023-02-09T22:09:49.465Z,-3.59
2023-02-09T22:12:15.922Z,-3.58
2023-02-09T22:14:42.352Z,-3.33
2023-02-09T22:17:08.794Z,-3.80
2023-02-09T22:19:35.648Z,-3.87
2023-02-09T22:22:02.142Z,-3.76
2023-02-09T22:24:30.005Z,-3.67
2023-02-09T22:26:56.473Z,-3.81
2023-02-09T22:29:23.021Z,-3.49
2023-02-09T22:31:49.462Z,-3.43
2023-02-09T22:34:15.961Z,-3.42
2023-02-09T22:36:42.412Z,-3.15
2023-02-09T22:39:09.284Z,-2.85
2023-02-09T22:41:36.116Z,-2.89
2023-02-09T22:44:08.084Z,-3.33
2023-02-09T22:46:38.118Z,-3.79
2023-02-09T22:49:08.163Z,-3.37
2023-02-09T22:51:38.949Z,-3.21
2023-02-09T22:54:09.457Z,-3.37
2023-02-09T22:56:35.964Z,-3.68
2023-02-09T22:59:03.588Z,-3.91
2023-02-09T23:01:30.549Z,-3.77
2023-02-09T23:03:57.855Z,-3.63
2023-02-09T23:06:29.707Z,-3.74
2023-02-09T23:08:58.953Z,-3.49
2023-02-09T23:11:30.025Z,-3.42
2023-02-09T23:14:09.708Z,-3.44
2023-02-09T23:16:38.073Z,-3.48
2023-02-09T23:19:07.846Z,-3.33
2023-02-09T23:21:37.702Z,-3.04
2023-02-09T23:24:05.126Z,-3.08
2023-02-09T23:26:31.758Z,-3.16
2023-02-09T23:29:03.426Z,-3.39
2023-02-09T23:31:30.564Z,-3.72
2023-02-09T23:33:57.714Z,-3.83
2023-02-09T23:36:49.782Z,-3.80
2023-02-09T23:39:19.313Z,-3.91
2023-02-09T23:41:45.922Z,-4.09
2023-02-09T23:44:13.121Z,-4.01
2023-02-09T23:46:40.775Z,-4.16
2023-02-09T23:49:07.337Z,-4.26
2023-02-09T23:51:35.563Z,-4.25
2023-02-09T23:54:05.109Z,-4.19
2023-02-09T23:56:36.746Z,-4.49
2023-02-09T23:59:09.302Z,-4.40
